Time;durP1;ratioP1;P1;durP2;ratioP2;P2;SDS_P1;SDS_P2;PMS_P1;PMS_P2;Temp;Humidity;BMP_temperature;BMP_pressure;BME280_temperature;BME280_humidity;BME280_pressure;Samples;Min_cycle;Max_cycle;Signal;HPM_P1;HPM_P2
2022/11/13 00:00:27;;;;;;;1999.90;999.90;;;4.30;99.90;;;;;;5050756;28;20459;-68
2022/11/13 00:02:54;;;;;;;1999.90;999.90;;;4.30;99.90;;;;;;5051373;28;20821;-69
2022/11/13 00:05:21;;;;;;;1999.90;999.90;;;4.20;99.90;;;;;;5049971;28;21037;-68
2022/11/13 00:07:47;;;;;;;1999.90;999.90;;;4.20;99.90;;;;;;5052326;28;20831;-68
2022/11/13 00:10:15;;;;;;;1999.90;999.90;;;4.20;99.90;;;;;;5052059;28;20954;-68
2022/11/13 00:12:41;;;;;;;1999.90;999.90;;;4.10;99.90;;;;;;5050973;28;20469;-68
2022/11/13 00:15:10;;;;;;;1999.90;999.90;;;4.10;99.90;;;;;;5050602;28;20497;-68
2022/11/13 00:17:37;;;;;;;1999.90;999.90;;;4.00;99.90;;;;;;5049939;28;20477;-68
2022/11/13 00:20:04;;;;;;;1999.90;999.90;;;3.90;99.90;;;;;;5050909;28;20473;-67
2022/11/13 00:22:31;;;;;;;1999.90;999.90;;;3.70;99.90;;;;;;5050927;28;20464;-68
2022/11/13 00:24:58;;;;;;;1999.90;999.90;;;3.70;99.90;;;;;;5050872;28;20486;-68
2022/11/13 00:27:25;;;;;;;1999.90;999.90;;;3.60;99.90;;;;;;5051697;28;20458;-68
2022/11/13 00:29:51;;;;;;;1999.90;999.90;;;3.70;99.90;;;;;;5050935;28;20458;-68
2022/11/13 00:32:20;;;;;;;1999.90;999.90;;;3.70;99.90;;;;;;5050325;28;20469;-68
2022/11/13 00:34:47;;;;;;;1999.90;999.90;;;3.70;99.90;;;;;;5050838;28;20998;-68
2022/11/13 00:37:13;;;;;;;1999.90;999.90;;;3.70;99.90;;;;;;5053261;28;20474;-68
2022/11/13 00:39:40;;;;;;;1999.90;999.90;;;3.70;99.90;;;;;;5051856;28;20473;-68
2022/11/13 00:42:07;;;;;;;1999.90;999.90;;;3.70;99.90;;;;;;5051115;28;20466;-68
2022/11/13 00:44:34;;;;;;;1999.90;999.90;;;3.60;99.90;;;;;;5049975;28;20485;-69
2022/11/13 00:47:00;;;;;;;1999.90;999.90;;;3.50;99.90;;;;;;5051808;28;20470;-69
2022/11/13 00:49:29;;;;;;;1999.90;999.90;;;3.40;99.90;;;;;;5048959;28;20458;-68
2022/11/13 00:51:55;;;;;;;1999.90;999.90;;;3.40;99.90;;;;;;5050449;28;20462;-68
2022/11/13 00:54:22;;;;;;;1999.90;999.90;;;3.30;99.90;;;;;;5049762;28;20489;-68
2022/11/13 00:56:49;;;;;;;1999.90;999.90;;;3.30;99.90;;;;;;5049177;28;20458;-68
2022/11/13 00:59:16;;;;;;;1999.90;999.90;;;3.30;99.90;;;;;;5050780;28;20541;-68
2022/11/13 01:01:42;;;;;;;1999.90;999.90;;;3.30;99.90;;;;;;5051200;28;20488;-68
2022/11/13 01:04:09;;;;;;;1999.90;999.90;;;3.30;99.90;;;;;;5047545;28;20483;-68
2022/11/13 01:06:37;;;;;;;1999.90;999.90;;;3.20;99.90;;;;;;5049488;28;20454;-68
2022/11/13 01:09:05;;;;;;;1999.90;999.90;;;3.10;99.90;;;;;;5050326;28;20466;-68
2022/11/13 01:11:31;;;;;;;1999.90;999.90;;;3.00;99.90;;;;;;5050461;28;20466;-69
2022/11/13 01:13:58;;;;;;;1999.90;999.90;;;2.90;99.90;;;;;;5049804;28;20466;-68
2022/11/13 01:16:27;;;;;;;1999.90;999.90;;;2.80;99.90;;;;;;5050446;28;20478;-68
2022/11/13 01:18:54;;;;;;;1999.90;999.90;;;2.70;99.90;;;;;;5050041;28;20454;-68
2022/11/13 01:21:23;;;;;;;1999.90;999.90;;;2.70;99.90;;;;;;5055197;28;20461;-69
2022/11/13 01:23:53;;;;;;;1999.90;999.90;;;2.70;99.90;;;;;;5057346;28;20462;-68
2022/11/13 01:26:22;;;;;;;1999.90;999.90;;;2.70;99.90;;;;;;5057505;28;20465;-68
2022/11/13 01:28:49;;;;;;;1999.90;999.90;;;2.70;99.90;;;;;;5060851;28;20463;-68
2022/11/13 01:31:18;;;;;;;1999.90;999.90;;;2.80;99.90;;;;;;5052754;28;20458;-68
2022/11/13 01:33:46;;;;;;;1999.90;999.90;;;2.80;99.90;;;;;;5050422;28;20462;-68
2022/11/13 01:36:14;;;;;;;1999.90;999.90;;;2.80;99.90;;;;;;5048964;28;20489;-68
2022/11/13 01:38:41;;;;;;;1999.90;999.90;;;2.80;99.90;;;;;;5049718;28;20481;-67
2022/11/13 01:41:15;;;;;;;1999.90;999.90;;;2.80;99.90;;;;;;5051661;28;20462;-68
2022/11/13 01:43:42;;;;;;;1999.90;999.90;;;2.80;99.90;;;;;;5050043;28;20541;-68
2022/11/13 01:46:22;;;;;;;1999.90;999.90;;;2.80;99.90;;;;;;5049777;28;20455;-68
2022/11/13 01:48:52;;;;;;;1999.90;999.90;;;2.80;99.90;;;;;;5045476;28;20508;-68
2022/11/13 01:51:25;;;;;;;1999.90;999.90;;;2.80;99.90;;;;;;5050837;28;20462;-68
2022/11/13 01:53:54;;;;;;;1999.90;999.90;;;2.70;99.90;;;;;;5050785;28;20458;-68
2022/11/13 01:56:22;;;;;;;1999.90;999.90;;;2.70;99.90;;;;;;5047962;28;20486;-69
2022/11/13 01:59:01;;;;;;;1999.90;999.90;;;2.70;99.90;;;;;;5049698;28;20454;-69
2022/11/13 02:01:28;;;;;;;1999.90;999.90;;;2.60;99.90;;;;;;5046647;28;20454;-68
2022/11/13 02:03:54;;;;;;;1999.90;999.90;;;2.60;99.90;;;;;;5049656;28;20465;-69
2022/11/13 02:06:21;;;;;;;1999.90;999.90;;;2.60;99.90;;;;;;5046101;28;20458;-69
2022/11/13 02:08:50;;;;;;;1999.90;999.90;;;2.60;99.90;;;;;;5050779;28;20488;-68
2022/11/13 02:11:17;;;;;;;1999.90;999.90;;;2.70;99.90;;;;;;5046700;28;20458;-68
2022/11/13 02:13:46;;;;;;;1999.90;999.90;;;2.70;99.90;;;;;;5048364;28;20516;-69
2022/11/13 02:16:15;;;;;;;1999.90;999.90;;;2.60;99.90;;;;;;5046730;28;20482;-68
2022/11/13 02:18:42;;;;;;;1999.90;999.90;;;2.50;99.90;;;;;;5046221;28;20474;-68
2022/11/13 02:21:27;;;;;;;1999.90;999.90;;;2.50;99.90;;;;;;5050330;28;20466;-68
2022/11/13 02:24:03;;;;;;;1999.90;999.90;;;2.50;99.90;;;;;;5047857;28;20458;-68
2022/11/13 02:26:32;;;;;;;1999.90;999.90;;;2.60;99.90;;;;;;5050369;28;20462;-68
2022/11/13 02:28:59;;;;;;;1999.90;999.90;;;2.50;99.90;;;;;;5049612;28;20466;-69
2022/11/13 02:31:26;;;;;;;1999.90;999.90;;;2.40;99.90;;;;;;5045609;28;20978;-68
2022/11/13 02:33:52;;;;;;;1999.90;999.90;;;2.40;99.90;;;;;;5049117;28;20467;-68
2022/11/13 02:36:21;;;;;;;1999.90;999.90;;;2.40;99.90;;;;;;5047551;28;20493;-67
2022/11/13 02:38:49;;;;;;;1999.90;999.90;;;2.30;99.90;;;;;;5048790;28;20954;-69
2022/11/13 02:41:16;;;;;;;1999.90;999.90;;;2.30;99.90;;;;;;5050193;28;20466;-68
2022/11/13 02:43:44;;;;;;;1999.90;999.90;;;2.20;99.90;;;;;;5048352;28;20862;-67
2022/11/13 02:46:11;;;;;;;1999.90;999.90;;;2.20;99.90;;;;;;5047955;28;20816;-69
2022/11/13 02:48:38;;;;;;;1999.90;999.90;;;2.20;99.90;;;;;;5047731;28;21061;-68
2022/11/13 02:51:05;;;;;;;1999.90;999.90;;;2.30;99.90;;;;;;5047104;28;20466;-68
2022/11/13 02:53:31;;;;;;;1999.90;999.90;;;2.20;99.90;;;;;;5042660;28;20462;-68
2022/11/13 02:55:58;;;;;;;1999.90;999.90;;;2.30;99.90;;;;;;5046975;28;21033;-67
2022/11/13 02:58:25;;;;;;;1999.90;999.90;;;2.30;99.90;;;;;;5045320;28;20981;-68
2022/11/13 03:00:53;;;;;;;1999.90;999.90;;;2.10;99.90;;;;;;5049745;28;20476;-68
2022/11/13 03:03:20;;;;;;;1999.90;999.90;;;2.10;99.90;;;;;;5049318;28;20473;-68
2022/11/13 03:05:48;;;;;;;1999.90;999.90;;;1.90;99.90;;;;;;5048621;28;20480;-68
2022/11/13 03:08:15;;;;;;;1999.90;999.90;;;1.90;99.90;;;;;;5049992;28;20844;-67
2022/11/13 03:10:42;;;;;;;1999.90;999.90;;;1.90;99.90;;;;;;5049105;28;20461;-68
2022/11/13 03:13:09;;;;;;;1999.90;999.90;;;2.00;99.90;;;;;;5053410;28;20985;-68
2022/11/13 03:15:36;;;;;;;1999.90;999.90;;;2.10;99.90;;;;;;5053709;28;20482;-68
2022/11/13 03:18:05;;;;;;;1999.90;999.90;;;2.10;99.90;;;;;;5053866;28;20466;-68
2022/11/13 03:20:32;;;;;;;1999.90;999.90;;;2.10;99.90;;;;;;5052151;28;20469;-68
2022/11/13 03:22:59;;;;;;;1999.90;999.90;;;2.20;99.90;;;;;;5050841;28;20465;-68
2022/11/13 03:25:26;;;;;;;1999.90;999.90;;;2.20;99.90;;;;;;5045702;28;20482;-68
2022/11/13 03:27:52;;;;;;;1999.90;999.90;;;2.10;99.90;;;;;;5053202;28;20491;-68
2022/11/13 03:30:19;;;;;;;1999.90;999.90;;;2.20;99.90;;;;;;5050906;28;20461;-68
2022/11/13 03:32:46;;;;;;;1999.90;999.90;;;2.10;99.90;;;;;;5052280;28;21784;-68
2022/11/13 03:35:14;;;;;;;1999.90;999.90;;;2.10;99.90;;;;;;5051676;28;20845;-68
2022/11/13 03:37:41;;;;;;;1999.90;999.90;;;2.10;99.90;;;;;;5052579;28;20458;-68
2022/11/13 03:40:09;;;;;;;1999.90;999.90;;;2.10;99.90;;;;;;5048154;28;20463;-68
2022/11/13 03:42:36;;;;;;;1999.90;999.90;;;2.10;99.90;;;;;;5051517;28;20458;-69
2022/11/13 03:45:03;;;;;;;1999.90;999.90;;;2.10;99.90;;;;;;5050032;28;20858;-66
2022/11/13 03:47:29;;;;;;;1999.90;999.90;;;2.10;99.90;;;;;;5053216;28;20811;-68
2022/11/13 03:49:56;;;;;;;1999.90;999.90;;;2.10;99.90;;;;;;5053061;28;21205;-68
2022/11/13 03:52:24;;;;;;;1999.90;999.90;;;2.00;99.90;;;;;;5052774;28;20458;-68
2022/11/13 03:54:51;;;;;;;1999.90;999.90;;;2.10;99.90;;;;;;5050247;28;20853;-68
2022/11/13 03:57:18;;;;;;;1999.90;999.90;;;2.20;99.90;;;;;;5052496;28;20597;-68
2022/11/13 03:59:45;;;;;;;1999.90;999.90;;;2.30;99.90;;;;;;5050808;28;20528;-69
2022/11/13 04:02:11;;;;;;;1999.90;999.90;;;2.30;99.90;;;;;;5048686;28;20459;-69
2022/11/13 04:04:38;;;;;;;1999.90;999.90;;;2.20;99.90;;;;;;5050633;28;20485;-68
2022/11/13 04:07:05;;;;;;;1999.90;999.90;;;2.10;99.90;;;;;;5052119;28;20829;-68
2022/11/13 04:09:33;;;;;;;1999.90;999.90;;;2.00;99.90;;;;;;5050929;28;20874;-69
2022/11/13 04:12:00;;;;;;;1999.90;999.90;;;1.90;99.90;;;;;;5051845;28;20470;-69
2022/11/13 04:14:26;;;;;;;1999.90;999.90;;;1.90;99.90;;;;;;5050788;28;20501;-68
2022/11/13 04:16:53;;;;;;;1999.90;999.90;;;1.90;99.90;;;;;;5047427;28;20482;-68
2022/11/13 04:19:20;;;;;;;1999.90;999.90;;;1.90;99.90;;;;;;5052187;28;20971;-68
2022/11/13 04:21:46;;;;;;;1999.90;999.90;;;1.80;99.90;;;;;;5051745;28;20466;-68
2022/11/13 04:24:13;;;;;;;1999.90;999.90;;;1.80;99.90;;;;;;5049428;28;20494;-69
2022/11/13 04:26:41;;;;;;;1999.90;999.90;;;1.80;99.90;;;;;;5051346;28;20462;-68
2022/11/13 04:29:08;;;;;;;1999.90;999.90;;;1.80;99.90;;;;;;5050532;28;20470;-69
2022/11/13 04:31:35;;;;;;;1999.90;999.90;;;1.80;99.90;;;;;;5048722;28;20466;-68
2022/11/13 04:34:02;;;;;;;1999.90;999.90;;;1.80;99.90;;;;;;5050575;28;20474;-69
2022/11/13 04:36:28;;;;;;;1999.90;999.90;;;1.70;99.90;;;;;;5050438;28;20478;-68
2022/11/13 04:38:55;;;;;;;1999.90;999.90;;;1.70;99.90;;;;;;5049044;28;20457;-68
2022/11/13 04:44:08;;;;;;;1999.90;999.90;;;1.70;99.90;;;;;;5049605;28;20516;-69
2022/11/13 04:46:34;;;;;;;1999.90;999.90;;;1.70;99.90;;;;;;5049786;28;20454;-69
2022/11/13 04:49:01;;;;;;;1999.90;999.90;;;1.70;99.90;;;;;;5049917;28;20462;-68
2022/11/13 04:51:28;;;;;;;1999.90;999.90;;;1.80;99.90;;;;;;5054436;28;20462;-68
2022/11/13 04:53:55;;;;;;;1999.90;999.90;;;1.70;99.90;;;;;;5070145;28;20454;-68
2022/11/13 04:56:21;;;;;;;1999.90;999.90;;;1.60;99.90;;;;;;5050567;28;20485;-68
2022/11/13 04:58:48;;;;;;;1999.90;999.90;;;1.60;99.90;;;;;;5046083;28;20474;-68
2022/11/13 05:01:16;;;;;;;1999.90;999.90;;;1.60;99.90;;;;;;5049826;28;20466;-68
2022/11/13 05:03:43;;;;;;;1999.90;999.90;;;1.60;99.90;;;;;;5049714;28;20463;-68
2022/11/13 05:06:11;;;;;;;1999.90;999.90;;;1.60;99.90;;;;;;5050043;28;20460;-68
2022/11/13 05:08:38;;;;;;;1999.90;999.90;;;1.30;99.90;;;;;;5049712;28;20462;-68
2022/11/13 05:11:05;;;;;;;1999.90;999.90;;;1.30;99.90;;;;;;5050146;28;20458;-68
2022/11/13 05:13:33;;;;;;;1999.90;999.90;;;1.30;99.90;;;;;;5050384;28;21188;-68
2022/11/13 05:16:02;;;;;;;1999.90;999.90;;;1.30;99.90;;;;;;5049846;28;21440;-68
2022/11/13 05:18:30;;;;;;;1999.90;999.90;;;1.20;99.90;;;;;;5050746;28;20462;-68
2022/11/13 05:20:58;;;;;;;1999.90;999.90;;;1.10;99.90;;;;;;5051433;28;20469;-68
2022/11/13 05:23:24;;;;;;;1999.90;999.90;;;1.10;99.90;;;;;;5049816;28;20484;-68
2022/11/13 05:25:51;;;;;;;1999.90;999.90;;;1.10;99.90;;;;;;5048465;28;20487;-68
2022/11/13 05:28:18;;;;;;;1999.90;999.90;;;1.20;99.90;;;;;;5051332;28;20458;-68
2022/11/13 05:30:45;;;;;;;1999.90;999.90;;;1.20;99.90;;;;;;5048405;28;20482;-68
2022/11/13 05:33:12;;;;;;;1999.90;999.90;;;1.20;99.90;;;;;;5049725;28;20454;-69
2022/11/13 05:35:40;;;;;;;1999.90;999.90;;;1.20;99.90;;;;;;5047498;28;20478;-69
2022/11/13 05:38:07;;;;;;;1999.90;999.90;;;1.20;99.90;;;;;;5048864;28;20462;-68
2022/11/13 05:40:33;;;;;;;1999.90;999.90;;;1.20;99.90;;;;;;5049398;28;20469;-67
2022/11/13 05:43:00;;;;;;;1999.90;999.90;;;1.20;99.90;;;;;;5050053;28;20469;-69
2022/11/13 05:45:27;;;;;;;1999.90;999.90;;;1.10;99.90;;;;;;5049104;28;20993;-68
2022/11/13 05:47:54;;;;;;;1999.90;999.90;;;1.20;99.90;;;;;;5049191;28;20458;-69
2022/11/13 05:50:21;;;;;;;1999.90;999.90;;;1.20;99.90;;;;;;5049550;28;20466;-67
2022/11/13 05:52:49;;;;;;;1999.90;999.90;;;1.20;99.90;;;;;;5049364;28;20825;-67
2022/11/13 05:55:16;;;;;;;1999.90;999.90;;;1.20;99.90;;;;;;5046877;28;20600;-68
2022/11/13 05:57:43;;;;;;;1999.90;999.90;;;1.20;99.90;;;;;;5048516;28;20489;-68
2022/11/13 06:00:11;;;;;;;1999.90;999.90;;;1.20;99.90;;;;;;5049679;28;20458;-68
2022/11/13 06:02:37;;;;;;;1999.90;999.90;;;1.20;99.90;;;;;;5049218;28;20492;-68
2022/11/13 06:05:05;;;;;;;1999.90;999.90;;;1.10;99.90;;;;;;5049262;28;20474;-68
2022/11/13 06:07:31;;;;;;;1999.90;999.90;;;1.00;99.90;;;;;;5049703;28;20454;-68
2022/11/13 06:10:00;;;;;;;1999.90;999.90;;;1.00;99.90;;;;;;5048244;28;20466;-68
2022/11/13 06:12:27;;;;;;;1999.90;999.90;;;1.00;99.90;;;;;;5045054;28;20965;-69
2022/11/13 06:14:53;;;;;;;1999.90;999.90;;;1.00;99.90;;;;;;5048771;28;21051;-68
2022/11/13 06:17:20;;;;;;;1999.90;999.90;;;1.10;99.90;;;;;;5049699;28;20497;-66
2022/11/13 06:19:47;;;;;;;1999.90;999.90;;;1.00;99.90;;;;;;5049527;28;20466;-69
2022/11/13 06:22:13;;;;;;;1999.90;999.90;;;0.90;99.90;;;;;;5050074;28;20466;-69
2022/11/13 06:24:40;;;;;;;1999.90;999.90;;;0.90;99.90;;;;;;5047983;28;20490;-68
2022/11/13 06:27:08;;;;;;;1999.90;999.90;;;0.90;99.90;;;;;;5047521;28;20454;-68
2022/11/13 06:29:35;;;;;;;1999.90;999.90;;;1.00;99.90;;;;;;5049803;28;20458;-67
2022/11/13 06:32:02;;;;;;;1999.90;999.90;;;0.90;99.90;;;;;;5049992;28;20462;-69
2022/11/13 06:34:28;;;;;;;1999.90;999.90;;;0.70;99.90;;;;;;5048266;28;20478;-68
2022/11/13 06:36:55;;;;;;;1999.90;999.90;;;0.60;99.90;;;;;;5048001;28;20482;-68
2022/11/13 06:39:22;;;;;;;1999.90;999.90;;;0.60;99.90;;;;;;5049663;28;20466;-68
2022/11/13 06:41:49;;;;;;;1999.90;999.90;;;0.80;99.90;;;;;;5049085;28;20466;-68
2022/11/13 06:44:17;;;;;;;1999.90;999.90;;;0.80;99.90;;;;;;5047379;28;20482;-68
2022/11/13 06:46:43;;;;;;;1999.90;999.90;;;0.80;99.90;;;;;;5050166;28;20460;-69
2022/11/13 06:49:10;;;;;;;1999.90;999.90;;;0.90;99.90;;;;;;5052094;28;20998;-67
2022/11/13 06:51:37;;;;;;;1999.90;999.90;;;1.00;99.90;;;;;;5049862;28;20458;-70
2022/11/13 06:54:04;;;;;;;1999.90;999.90;;;1.00;99.90;;;;;;5053434;28;20462;-68
2022/11/13 06:56:31;;;;;;;1999.90;999.90;;;1.00;99.90;;;;;;5051854;28;20485;-66
2022/11/13 06:58:57;;;;;;;1999.90;999.90;;;1.10;99.90;;;;;;5052644;28;20462;-68
2022/11/13 07:01:26;;;;;;;1999.90;999.90;;;1.10;99.90;;;;;;5052370;28;20458;-69
2022/11/13 07:03:53;;;;;;;1999.90;999.90;;;1.10;99.90;;;;;;5050756;28;20879;-68
2022/11/13 07:06:22;;;;;;;1999.90;999.90;;;1.00;99.90;;;;;;5052923;28;20486;-69
2022/11/13 07:08:49;;;;;;;1999.90;999.90;;;1.00;99.90;;;;;;5052803;28;20473;-67
2022/11/13 07:11:17;;;;;;;1999.90;999.90;;;1.10;99.90;;;;;;5053618;28;20461;-66
2022/11/13 07:13:44;;;;;;;1999.90;999.90;;;1.20;99.90;;;;;;5050240;28;20458;-68
2022/11/13 07:16:12;;;;;;;1999.90;999.90;;;1.30;99.90;;;;;;5052539;28;20470;-68
2022/11/13 07:18:40;;;;;;;1999.90;999.90;;;1.50;99.90;;;;;;5054824;28;20438;-68
2022/11/13 07:21:09;;;;;;;1999.90;999.90;;;1.70;99.90;;;;;;5052243;28;20471;-67
2022/11/13 07:23:41;;;;;;;1999.90;999.90;;;1.60;99.90;;;;;;5055096;28;20450;-68
2022/11/13 07:26:09;;;;;;;1999.90;999.90;;;1.70;99.90;;;;;;5049859;28;20486;-66
2022/11/13 07:28:35;;;;;;;1999.90;999.90;;;1.70;99.90;;;;;;5053921;28;20469;-69
2022/11/13 07:31:02;;;;;;;1999.90;999.90;;;1.70;99.90;;;;;;5051629;28;20465;-68
2022/11/13 07:33:29;;;;;;;1999.90;999.90;;;1.70;99.90;;;;;;5048487;28;20459;-67
2022/11/13 07:35:57;;;;;;;1999.90;999.90;;;1.80;99.90;;;;;;5053185;28;20481;-70
2022/11/13 07:38:24;;;;;;;1999.90;999.90;;;1.80;99.90;;;;;;5053668;28;20548;-69
2022/11/13 07:40:51;;;;;;;1999.90;999.90;;;1.90;99.90;;;;;;5051859;28;20537;-70
2022/11/13 07:43:18;;;;;;;1999.90;999.90;;;1.90;99.90;;;;;;5052985;28;20920;-69
2022/11/13 07:45:45;;;;;;;1999.90;999.90;;;1.90;99.90;;;;;;5050052;28;20490;-69
2022/11/13 07:48:11;;;;;;;1999.90;999.90;;;2.00;99.90;;;;;;5059667;28;20464;-70
2022/11/13 07:50:39;;;;;;;1999.90;999.90;;;2.10;99.90;;;;;;5056680;28;20459;-70
2022/11/13 07:53:08;;;;;;;1999.90;999.90;;;2.10;99.90;;;;;;5064030;28;20455;-69
2022/11/13 07:55:36;;;;;;;1999.90;999.90;;;2.10;99.90;;;;;;5056664;28;20478;-70
2022/11/13 07:58:04;;;;;;;1999.90;999.90;;;2.10;99.90;;;;;;5064373;28;20482;-69
2022/11/13 08:00:32;;;;;;;1999.90;999.90;;;2.10;99.90;;;;;;5061013;28;20462;-69
2022/11/13 08:03:04;;;;;;;1999.90;999.90;;;2.10;99.90;;;;;;5052062;28;20899;-69
2022/11/13 08:05:31;;;;;;;1999.90;999.90;;;2.10;99.90;;;;;;5052659;28;20481;-68
2022/11/13 08:07:57;;;;;;;1999.90;999.90;;;2.20;99.90;;;;;;5044593;28;20470;-70
2022/11/13 08:10:26;;;;;;;1999.90;999.90;;;2.20;99.90;;;;;;5053323;28;20462;-70
2022/11/13 08:12:59;;;;;;;1999.90;999.90;;;2.20;99.90;;;;;;5051297;28;20984;-69
2022/11/13 08:15:26;;;;;;;1999.90;999.90;;;2.20;99.90;;;;;;5042180;28;20479;-69
2022/11/13 08:17:56;;;;;;;1999.90;999.90;;;2.20;99.90;;;;;;5046325;28;21020;-70
2022/11/13 08:20:23;;;;;;;1999.90;999.90;;;2.00;99.90;;;;;;5053072;28;20466;-70
2022/11/13 08:22:51;;;;;;;1999.90;999.90;;;2.00;99.90;;;;;;5053544;28;20446;-70
2022/11/13 08:25:18;;;;;;;1999.90;999.90;;;2.10;99.90;;;;;;5052869;28;20832;-70
2022/11/13 08:27:46;;;;;;;1999.90;999.90;;;2.20;99.90;;;;;;5051192;28;20454;-68
2022/11/13 08:30:14;;;;;;;1999.90;999.90;;;2.30;99.90;;;;;;5051339;28;20821;-69
2022/11/13 08:32:41;;;;;;;1999.90;999.90;;;2.30;99.90;;;;;;5053371;28;20438;-69
2022/11/13 08:35:08;;;;;;;1999.90;999.90;;;2.20;99.90;;;;;;5049118;28;20474;-68
2022/11/13 08:37:35;;;;;;;1999.90;999.90;;;2.20;99.90;;;;;;5051539;28;20998;-71
2022/11/13 08:40:02;;;;;;;1999.90;999.90;;;2.30;99.90;;;;;;5048394;28;20958;-69
2022/11/13 08:42:28;;;;;;;1999.90;999.90;;;2.30;99.90;;;;;;5051766;28;20454;-70
2022/11/13 08:44:56;;;;;;;1999.90;999.90;;;2.50;99.90;;;;;;5049264;28;20489;-69
2022/11/13 08:47:23;;;;;;;1999.90;999.90;;;2.60;99.90;;;;;;5056325;28;20454;-70
2022/11/13 08:49:50;;;;;;;1999.90;999.90;;;2.40;99.90;;;;;;5058142;28;20458;-70
2022/11/13 08:52:16;;;;;;;1999.90;999.90;;;2.60;99.90;;;;;;5058868;28;20445;-70
2022/11/13 08:54:43;;;;;;;1999.90;999.90;;;2.70;99.90;;;;;;5055813;28;20462;-69
2022/11/13 08:57:10;;;;;;;1999.90;999.90;;;3.00;99.90;;;;;;5058209;28;20969;-70
2022/11/13 08:59:37;;;;;;;1999.90;999.90;;;3.20;99.90;;;;;;5054466;28;20450;-70
2022/11/13 09:02:05;;;;;;;1999.90;999.90;;;3.40;99.90;;;;;;5049645;28;20493;-69
2022/11/13 09:04:32;;;;;;;1999.90;999.90;;;3.60;99.90;;;;;;5045004;28;20481;-70
2022/11/13 09:06:59;;;;;;;1999.90;999.90;;;3.70;99.90;;;;;;5052895;28;20431;-70
2022/11/13 09:09:25;;;;;;;1999.90;999.90;;;3.90;99.90;;;;;;5053102;28;20441;-69
2022/11/13 09:11:52;;;;;;;1999.90;999.90;;;3.90;99.90;;;;;;5053000;28;20449;-70
2022/11/13 09:14:19;;;;;;;1999.90;999.90;;;3.80;99.90;;;;;;5050725;28;20474;-70
2022/11/13 09:16:46;;;;;;;1999.90;999.90;;;3.90;99.90;;;;;;5041215;28;20455;-68
2022/11/13 09:19:14;;;;;;;1999.90;999.90;;;3.90;99.90;;;;;;5044424;28;20542;-70
2022/11/13 09:21:41;;;;;;;1999.90;999.90;;;4.00;99.90;;;;;;5052085;28;20469;-69
2022/11/13 09:24:08;;;;;;;1999.90;999.90;;;4.10;99.90;;;;;;5064926;28;20486;-69
2022/11/13 09:26:35;;;;;;;1999.90;999.90;;;4.20;99.90;;;;;;5063045;28;20473;-70
2022/11/13 09:29:02;;;;;;;1999.90;999.90;;;4.30;99.90;;;;;;5050007;28;20446;-69
2022/11/13 09:31:28;;;;;;;1999.90;999.90;;;4.70;99.90;;;;;;5048629;28;20477;-71
2022/11/13 09:33:55;;;;;;;1999.90;999.90;;;4.80;99.90;;;;;;5043929;28;20463;-70
2022/11/13 09:36:23;;;;;;;1999.90;999.90;;;4.90;99.90;;;;;;5053728;28;20806;-71
2022/11/13 09:38:50;;;;;;;1999.90;999.90;;;4.90;99.90;;;;;;5047892;28;20829;-70
2022/11/13 09:41:20;;;;;;;1999.90;999.90;;;4.90;99.90;;;;;;5050573;28;20462;-70
2022/11/13 09:43:51;;;;;;;1999.90;999.90;;;4.90;99.90;;;;;;5050600;28;20442;-69
2022/11/13 09:46:35;;;;;;;1999.90;999.90;;;5.10;99.90;;;;;;5049902;28;20419;-70
2022/11/13 09:49:12;;;;;;;1999.90;999.90;;;5.10;99.90;;;;;;5050334;28;20442;-71
2022/11/13 09:51:42;;;;;;;1999.90;999.90;;;4.90;99.90;;;;;;5050876;28;20422;-70
2022/11/13 09:54:12;;;;;;;1999.90;999.90;;;4.90;99.90;;;;;;5050909;28;20465;-71
2022/11/13 09:56:43;;;;;;;1999.90;999.90;;;4.90;99.90;;;;;;5045962;28;20997;-70
2022/11/13 09:59:21;;;;;;;1999.90;999.90;;;5.00;99.90;;;;;;5050304;28;20467;-70
2022/11/13 10:01:56;;;;;;;1999.90;999.90;;;5.20;99.90;;;;;;5052106;28;20448;-69
2022/11/13 10:04:34;;;;;;;1999.90;999.90;;;5.40;99.90;;;;;;5051402;28;20460;-67
2022/11/13 10:07:14;;;;;;;1999.90;999.90;;;5.50;99.90;;;;;;5052034;28;20906;-67
2022/11/13 10:09:59;;;;;;;1999.90;999.90;;;5.60;99.90;;;;;;5051195;28;20458;-68
2022/11/13 10:12:28;;;;;;;1999.90;999.90;;;5.60;99.90;;;;;;5043939;28;20453;-69
2022/11/13 10:14:56;;;;;;;1999.90;999.90;;;5.70;99.90;;;;;;5051538;28;20454;-70
2022/11/13 10:17:28;;;;;;;1999.90;999.90;;;5.70;99.90;;;;;;5052554;28;21011;-69
2022/11/13 10:19:57;;;;;;;1999.90;999.90;;;5.70;99.90;;;;;;5052064;28;20976;-70
2022/11/13 10:22:31;;;;;;;1999.90;999.90;;;5.80;99.90;;;;;;5051820;28;20446;-69
2022/11/13 10:25:04;;;;;;;1999.90;999.90;;;5.70;99.90;;;;;;5050132;28;20490;-69
2022/11/13 10:27:31;;;;;;;1999.90;999.90;;;5.70;99.90;;;;;;5044851;28;20443;-70
2022/11/13 10:29:58;;;;;;;1999.90;999.90;;;5.60;99.90;;;;;;5052074;28;20538;-69
2022/11/13 10:32:26;;;;;;;1999.90;999.90;;;5.60;99.90;;;;;;5052163;28;20438;-69
2022/11/13 10:34:59;;;;;;;1999.90;999.90;;;5.70;99.90;;;;;;5050525;28;20469;-69
2022/11/13 10:37:45;;;;;;;1999.90;999.90;;;5.80;99.90;;;;;;5051250;28;20459;-68
2022/11/13 10:40:12;;;;;;;1999.90;999.90;;;5.80;99.90;;;;;;5051861;28;20446;-70
2022/11/13 10:42:40;;;;;;;1999.90;999.90;;;5.80;99.90;;;;;;5051699;28;20449;-69
2022/11/13 10:45:15;;;;;;;1999.90;999.90;;;5.60;99.90;;;;;;5051246;28;20462;-70
2022/11/13 10:47:47;;;;;;;1999.90;999.90;;;5.50;99.90;;;;;;5051909;28;20421;-70
2022/11/13 10:50:23;;;;;;;1999.90;999.90;;;5.50;99.90;;;;;;5051852;28;20480;-70
2022/11/13 10:52:54;;;;;;;1999.90;999.90;;;5.50;99.90;;;;;;5051149;28;20454;-70
2022/11/13 10:55:31;;;;;;;1999.90;999.90;;;5.50;99.90;;;;;;5049047;28;20449;-69
2022/11/13 10:57:59;;;;;;;1999.90;999.90;;;5.70;99.90;;;;;;5051149;28;20485;-69
2022/11/13 11:00:30;;;;;;;1999.90;999.90;;;5.80;99.90;;;;;;5051829;28;20453;-70
2022/11/13 11:02:57;;;;;;;1999.90;999.90;;;5.80;99.90;;;;;;5051460;28;20423;-70
2022/11/13 11:05:25;;;;;;;1999.90;999.90;;;5.70;99.90;;;;;;5050733;28;20541;-69
2022/11/13 11:07:55;;;;;;;1999.90;999.90;;;5.70;99.90;;;;;;5050557;28;20454;-70
2022/11/13 11:10:29;;;;;;;1999.90;999.90;;;5.70;99.90;;;;;;5051558;28;20449;-70
2022/11/13 11:13:00;;;;;;;1999.90;999.90;;;5.90;99.90;;;;;;5051364;28;20438;-70
2022/11/13 11:15:35;;;;;;;1999.90;999.90;;;5.90;99.90;;;;;;5050589;28;20458;-70
2022/11/13 11:18:06;;;;;;;1999.90;999.90;;;6.00;99.90;;;;;;5051320;28;20477;-70
2022/11/13 11:20:43;;;;;;;1999.90;999.90;;;6.00;99.90;;;;;;5050601;28;20480;-70
2022/11/13 11:23:22;;;;;;;1999.90;999.90;;;6.00;99.90;;;;;;5051090;28;20952;-70
2022/11/13 11:25:53;;;;;;;1999.90;999.90;;;6.00;99.90;;;;;;5048447;28;20489;-70
2022/11/13 11:28:29;;;;;;;1999.90;999.90;;;5.80;99.90;;;;;;5050048;28;20553;-70
2022/11/13 11:31:05;;;;;;;1999.90;999.90;;;5.70;99.90;;;;;;5051347;28;20789;-70
2022/11/13 11:33:36;;;;;;;1999.90;999.90;;;5.70;99.90;;;;;;5052667;28;20441;-70
2022/11/13 11:36:11;;;;;;;1999.90;999.90;;;5.80;99.90;;;;;;5053213;28;20462;-69
2022/11/13 11:38:50;;;;;;;1999.90;999.90;;;5.80;99.90;;;;;;5053688;28;20481;-69
2022/11/13 11:41:20;;;;;;;1999.90;999.90;;;5.70;99.90;;;;;;5054648;28;20442;-69
2022/11/13 11:43:53;;;;;;;1999.90;999.90;;;5.70;99.90;;;;;;5054807;28;20442;-69
2022/11/13 11:46:23;;;;;;;1999.90;999.90;;;5.60;99.90;;;;;;5052998;28;20476;-70
2022/11/13 11:48:50;;;;;;;1999.90;999.90;;;5.70;99.90;;;;;;5054322;28;20427;-70
2022/11/13 11:51:24;;;;;;;1999.90;999.90;;;5.60;99.90;;;;;;5053565;28;20458;-70
2022/11/13 11:54:03;;;;;;;1999.90;999.90;;;5.60;99.90;;;;;;5053187;28;20536;-69
2022/11/13 11:56:35;;;;;;;1999.90;999.90;;;5.60;99.90;;;;;;5044343;28;20437;-70
2022/11/13 11:59:30;;;;;;;1999.90;999.90;;;5.60;99.90;;;;;;5053367;28;20478;-69
2022/11/13 12:02:29;;;;;;;1999.90;999.90;;;5.70;99.90;;;;;;5045596;28;20439;-70
2022/11/13 12:05:08;;;;;;;1999.90;999.90;;;5.70;99.90;;;;;;5041548;28;20474;-70
2022/11/13 12:07:40;;;;;;;1999.90;999.90;;;5.60;99.90;;;;;;5047457;28;20434;-69
2022/11/13 12:10:30;;;;;;;1999.90;999.90;;;5.60;99.90;;;;;;5053057;28;20950;-70
2022/11/13 12:13:13;;;;;;;1999.90;999.90;;;5.70;99.90;;;;;;5049494;28;20537;-69
2022/11/13 12:15:47;;;;;;;1999.90;999.90;;;5.70;99.90;;;;;;5046597;28;20507;-70
2022/11/13 12:18:19;;;;;;;1999.90;999.90;;;5.60;99.90;;;;;;5053969;28;20477;-70